createdAt,value
2023-05-09T00:00:46.512Z,29.81
2023-05-09T00:01:46.604Z,30.51
2023-05-09T00:02:46.502Z,30.26
2023-05-09T00:03:46.509Z,29.20
2023-05-09T00:04:46.552Z,29.99
2023-05-09T00:05:46.572Z,29.37
2023-05-09T00:06:46.669Z,29.53
2023-05-09T00:07:46.739Z,29.12
2023-05-09T00:08:46.792Z,29.62
2023-05-09T00:09:46.812Z,28.51
2023-05-09T00:10:46.797Z,30.26
2023-05-09T00:11:46.921Z,29.88
2023-05-09T00:12:46.945Z,28.68
2023-05-09T00:13:46.990Z,28.93
2023-05-09T00:14:47.115Z,28.50
2023-05-09T00:15:47.043Z,27.93
2023-05-09T00:16:47.149Z,29.44
2023-05-09T00:17:47.209Z,30.54
2023-05-09T00:18:47.201Z,30.31
2023-05-09T00:19:47.234Z,29.79
2023-05-09T00:20:47.197Z,29.61
2023-05-09T00:21:47.226Z,29.76
2023-05-09T00:22:47.240Z,29.60
2023-05-09T00:23:47.227Z,29.61
2023-05-09T00:24:47.302Z,28.55
2023-05-09T00:25:47.321Z,28.98
2023-05-09T00:26:47.318Z,30.76
2023-05-09T00:27:47.386Z,29.53
2023-05-09T00:28:47.448Z,29.07
2023-05-09T00:29:47.431Z,30.26
2023-05-09T00:30:47.533Z,29.01
2023-05-09T00:31:47.503Z,27.71
2023-05-09T00:32:47.547Z,30.11
2023-05-09T00:33:47.593Z,28.70
2023-05-09T00:34:47.574Z,28.95
2023-05-09T00:35:47.641Z,30.08
2023-05-09T00:36:47.655Z,28.86
2023-05-09T00:37:47.653Z,29.17
2023-05-09T00:38:47.669Z,31.22
2023-05-09T00:39:47.720Z,27.72
2023-05-09T00:40:47.777Z,28.07
2023-05-09T00:41:47.751Z,28.87
2023-05-09T00:42:47.776Z,30.85
2023-05-09T00:43:47.801Z,28.90
2023-05-09T00:44:47.805Z,31.71
2023-05-09T00:45:47.909Z,27.87
2023-05-09T00:46:47.931Z,28.63
2023-05-09T00:47:47.956Z,28.77
2023-05-09T00:48:47.831Z,27.28
2023-05-09T00:49:47.892Z,28.53
2023-05-09T00:50:47.840Z,29.98
2023-05-09T00:51:47.851Z,27.93
2023-05-09T00:52:47.924Z,28.16
2023-05-09T00:53:47.858Z,28.52
2023-05-09T00:54:47.904Z,29.05
2023-05-09T00:55:47.936Z,29.00
2023-05-09T00:56:47.887Z,30.46
2023-05-09T00:57:47.919Z,28.92
2023-05-09T00:58:47.937Z,30.14
2023-05-09T00:59:47.943Z,30.33
2023-05-09T01:00:48.228Z,30.22
2023-05-09T01:01:48.062Z,31.77
2023-05-09T01:02:48.131Z,31.44
2023-05-09T01:03:48.035Z,31.41
2023-05-09T01:04:48.016Z,30.92
2023-05-09T01:05:47.987Z,31.74
2023-05-09T01:06:48.019Z,30.84
2023-05-09T01:07:47.963Z,32.35
2023-05-09T01:08:47.967Z,31.33
2023-05-09T01:09:48.032Z,30.96
2023-05-09T01:10:48.034Z,30.78
2023-05-09T01:11:48.051Z,32.74
2023-05-09T01:12:48.057Z,31.64
2023-05-09T01:13:48.050Z,30.56
2023-05-09T01:14:48.045Z,30.73
2023-05-09T01:15:48.140Z,30.49
2023-05-09T01:16:48.139Z,31.49
2023-05-09T01:17:48.175Z,32.19
2023-05-09T01:18:48.258Z,31.06
2023-05-09T01:19:48.275Z,31.59
2023-05-09T01:20:48.179Z,31.59
2023-05-09T01:21:48.223Z,30.12
2023-05-09T01:22:48.248Z,29.49
2023-05-09T01:23:48.247Z,29.70
2023-05-09T01:24:48.253Z,29.46
2023-05-09T01:25:48.318Z,28.57
2023-05-09T01:26:48.335Z,31.77
2023-05-09T01:27:48.299Z,30.73
2023-05-09T01:28:48.377Z,31.03
2023-05-09T01:29:48.389Z,30.45
2023-05-09T01:30:48.396Z,30.89
2023-05-09T01:31:48.489Z,29.48
2023-05-09T01:32:48.428Z,29.10
2023-05-09T01:33:48.381Z,30.25
2023-05-09T01:34:48.489Z,30.64
2023-05-09T01:35:48.436Z,29.37
2023-05-09T01:36:48.433Z,29.48
2023-05-09T01:37:48.434Z,29.27
2023-05-09T01:38:48.487Z,29.01
2023-05-09T01:39:48.484Z,30.27
2023-05-09T01:40:48.484Z,29.20
2023-05-09T01:41:48.504Z,29.95
2023-05-09T01:42:48.520Z,28.94
2023-05-09T01:43:48.520Z,29.64
2023-05-09T01:44:48.518Z,30.16
2023-05-09T01:45:48.538Z,30.29
2023-05-09T01:46:48.558Z,29.29
2023-05-09T01:47:48.612Z,28.83
2023-05-09T01:48:48.548Z,29.30
2023-05-09T01:49:48.542Z,28.93
2023-05-09T01:50:48.681Z,29.93
2023-05-09T01:51:48.534Z,28.94
2023-05-09T01:52:48.604Z,28.04
2023-05-09T01:53:48.605Z,30.24
2023-05-09T01:54:48.636Z,30.30
2023-05-09T01:55:48.633Z,29.53
2023-05-09T01:56:48.605Z,29.16
2023-05-09T01:57:48.615Z,31.09
2023-05-09T01:58:48.600Z,30.94
2023-05-09T01:59:48.626Z,30.36
2023-05-09T02:00:48.683Z,29.80
2023-05-09T02:01:48.666Z,28.97
2023-05-09T02:02:48.870Z,29.50
2023-05-09T02:03:48.628Z,29.07
2023-05-09T02:04:48.616Z,30.57
2023-05-09T02:05:48.644Z,30.49
2023-05-09T02:06:48.738Z,29.97
2023-05-09T02:07:48.688Z,30.41
2023-05-09T02:08:48.668Z,30.65
2023-05-09T02:09:48.673Z,30.85
2023-05-09T02:10:48.642Z,29.15
2023-05-09T02:11:48.706Z,29.81
2023-05-09T02:12:48.763Z,30.05
2023-05-09T02:13:48.647Z,30.79
2023-05-09T02:14:48.690Z,29.94
2023-05-09T02:15:48.694Z,31.08
2023-05-09T02:16:48.703Z,31.29
2023-05-09T02:17:48.709Z,31.82
2023-05-09T02:18:48.690Z,32.29
2023-05-09T02:19:48.728Z,33.04
2023-05-09T02:20:48.758Z,32.20
2023-05-09T02:21:48.743Z,32.80
2023-05-09T02:22:48.866Z,33.55
2023-05-09T02:23:48.875Z,34.32
2023-05-09T02:24:48.971Z,32.07
2023-05-09T02:25:48.966Z,33.23
2023-05-09T02:26:49.011Z,33.42
2023-05-09T02:27:49.048Z,32.79
2023-05-09T02:28:49.064Z,34.63
2023-05-09T02:29:49.160Z,32.72
2023-05-09T02:30:49.222Z,31.57
2023-05-09T02:31:49.305Z,34.80
2023-05-09T02:32:49.309Z,34.26
2023-05-09T02:33:49.327Z,33.63
2023-05-09T02:34:49.312Z,32.55
2023-05-09T02:35:49.352Z,32.65
2023-05-09T02:36:49.378Z,33.53
2023-05-09T02:37:49.417Z,33.06
2023-05-09T02:38:49.490Z,33.75
2023-05-09T02:39:49.435Z,34.44
2023-05-09T02:40:50.976Z,34.21
2023-05-09T02:41:49.506Z,34.36
2023-05-09T02:42:49.463Z,34.05
2023-05-09T02:43:49.472Z,33.41
2023-05-09T02:44:49.453Z,35.09
2023-05-09T02:45:49.439Z,33.07
2023-05-09T02:46:49.455Z,34.02
2023-05-09T02:47:49.513Z,33.50
2023-05-09T02:48:49.449Z,32.53
2023-05-09T02:49:49.410Z,33.82
2023-05-09T02:50:49.421Z,33.73
2023-05-09T02:51:49.425Z,33.72
2023-05-09T02:52:49.397Z,33.70
2023-05-09T02:53:49.388Z,35.89
2023-05-09T02:54:49.488Z,32.93
2023-05-09T02:55:49.405Z,35.46
2023-05-09T02:56:49.408Z,33.74
2023-05-09T02:57:54.101Z,32.68
2023-05-09T02:58:50.361Z,32.20
2023-05-09T02:59:49.335Z,34.88
2023-05-09T03:00:49.353Z,34.83
2023-05-09T03:01:49.401Z,34.36
2023-05-09T03:02:49.417Z,33.59
2023-05-09T03:03:49.424Z,35.04
2023-05-09T03:04:49.344Z,35.19
2023-05-09T03:05:49.330Z,32.86
2023-05-09T03:06:49.323Z,34.73
2023-05-09T03:07:49.320Z,34.33
2023-05-09T03:08:49.291Z,35.21
2023-05-09T03:09:49.349Z,35.87
2023-05-09T03:10:49.406Z,33.57
2023-05-09T03:11:49.304Z,32.92
2023-05-09T03:12:49.345Z,34.00
2023-05-09T03:13:49.325Z,35.26
2023-05-09T03:14:49.376Z,34.18
2023-05-09T03:15:49.473Z,34.36
2023-05-09T03:16:49.516Z,32.26
2023-05-09T03:17:49.587Z,33.33
2023-05-09T03:18:49.568Z,35.08
2023-05-09T03:19:49.608Z,32.42
2023-05-09T03:20:49.723Z,31.08
2023-05-09T03:21:49.701Z,32.01
2023-05-09T03:22:49.790Z,32.85
2023-05-09T03:23:49.815Z,33.33
2023-05-09T03:24:49.866Z,33.09
2023-05-09T03:25:49.935Z,33.31
2023-05-09T03:26:49.974Z,34.03
2023-05-09T03:27:50.047Z,34.37
2023-05-09T03:28:50.023Z,33.09
2023-05-09T03:29:50.059Z,32.11
2023-05-09T03:30:50.076Z,32.09
2023-05-09T03:31:50.197Z,35.11
2023-05-09T03:32:50.188Z,32.44
2023-05-09T03:33:50.161Z,33.14
2023-05-09T03:34:50.257Z,33.74
2023-05-09T03:35:50.336Z,33.43
2023-05-09T03:36:50.346Z,33.44
2023-05-09T03:37:50.415Z,34.52
2023-05-09T03:38:50.445Z,33.11
2023-05-09T03:39:50.489Z,33.42
2023-05-09T03:40:50.469Z,32.48
2023-05-09T03:41:50.476Z,33.05
2023-05-09T03:42:51.097Z,33.49
2023-05-09T03:43:50.619Z,31.75
2023-05-09T03:44:50.669Z,32.51
2023-05-09T03:45:50.669Z,32.15
2023-05-09T03:46:50.846Z,32.66
2023-05-09T03:47:50.814Z,32.74
2023-05-09T03:48:50.809Z,32.88
2023-05-09T03:49:50.866Z,33.29
2023-05-09T03:50:50.875Z,32.31
2023-05-09T03:51:50.964Z,33.06
2023-05-09T03:52:50.891Z,34.22
2023-05-09T03:53:50.981Z,33.94
2023-05-09T03:54:50.957Z,32.98
2023-05-09T03:55:50.957Z,32.82
2023-05-09T03:56:50.993Z,32.32
2023-05-09T03:57:51.038Z,34.25
2023-05-09T03:58:51.184Z,34.97
2023-05-09T03:59:51.136Z,33.75
2023-05-09T04:00:51.212Z,34.06
2023-05-09T04:01:52.465Z,32.27
2023-05-09T04:02:51.417Z,34.83
2023-05-09T04:03:51.441Z,33.17
2023-05-09T04:04:51.347Z,31.72
2023-05-09T04:05:51.363Z,33.76
2023-05-09T04:06:52.570Z,32.98
2023-05-09T04:07:51.384Z,32.48
2023-05-09T04:08:51.472Z,32.56
2023-05-09T04:09:51.497Z,33.02
2023-05-09T04:10:51.565Z,32.92
2023-05-09T04:11:51.579Z,30.57
2023-05-09T04:12:51.631Z,32.35
2023-05-09T04:13:51.636Z,34.29
2023-05-09T04:14:51.778Z,31.89
2023-05-09T04:15:51.746Z,33.17
2023-05-09T04:16:51.768Z,33.71
2023-05-09T04:17:51.854Z,32.53
2023-05-09T04:18:51.852Z,32.86
2023-05-09T04:19:51.941Z,33.32
2023-05-09T04:20:51.950Z,31.67
2023-05-09T04:21:52.044Z,31.44
2023-05-09T04:22:52.078Z,33.06
2023-05-09T04:23:52.118Z,32.50
2023-05-09T04:24:52.137Z,32.46
2023-05-09T04:25:52.206Z,31.37
2023-05-09T04:26:52.206Z,31.50
2023-05-09T04:27:52.329Z,34.18
2023-05-09T04:28:52.298Z,34.21
2023-05-09T04:29:52.383Z,34.47
2023-05-09T04:30:52.619Z,34.94
2023-05-09T04:31:52.620Z,33.72
2023-05-09T04:32:52.580Z,34.23
2023-05-09T04:33:52.551Z,35.94
2023-05-09T04:34:52.597Z,34.18
2023-05-09T04:35:52.666Z,35.62
2023-05-09T04:36:52.720Z,34.63
2023-05-09T04:37:52.793Z,35.04
2023-05-09T04:38:52.807Z,34.13
2023-05-09T04:39:52.882Z,34.80
2023-05-09T04:40:52.854Z,34.75
2023-05-09T04:41:52.937Z,33.43
2023-05-09T04:42:52.982Z,34.91
2023-05-09T04:43:53.050Z,33.86
2023-05-09T04:44:53.102Z,34.04
2023-05-09T04:45:53.162Z,34.14
2023-05-09T04:46:53.209Z,34.32
2023-05-09T04:47:53.228Z,33.61
2023-05-09T04:48:53.189Z,33.04
2023-05-09T04:49:53.207Z,34.34
2023-05-09T04:50:53.279Z,34.98
2023-05-09T04:51:54.467Z,36.35
2023-05-09T04:52:53.386Z,35.43
2023-05-09T04:53:53.379Z,33.85
2023-05-09T04:54:53.401Z,34.54
2023-05-09T04:55:53.443Z,34.38
2023-05-09T04:56:57.941Z,32.73
2023-05-09T04:57:54.478Z,32.31
2023-05-09T04:58:53.474Z,32.07
2023-05-09T04:59:53.465Z,33.08
2023-05-09T05:02:13.181Z,33.31
2023-05-09T05:03:13.094Z,32.24
2023-05-09T05:04:13.475Z,32.95
2023-05-09T05:05:13.113Z,33.64
2023-05-09T05:06:13.109Z,34.62
2023-05-09T05:07:13.437Z,33.06
2023-05-09T05:08:13.106Z,31.47
2023-05-09T05:09:13.073Z,34.61
2023-05-09T05:10:13.042Z,31.86
2023-05-09T05:11:13.044Z,30.19
2023-05-09T05:12:13.068Z,31.50
2023-05-09T05:13:13.127Z,31.82
2023-05-09T05:14:13.029Z,32.70
2023-05-09T05:15:13.422Z,31.52
2023-05-09T05:16:13.078Z,30.66
2023-05-09T05:17:13.016Z,30.28
2023-05-09T05:18:13.095Z,30.55
2023-05-09T05:19:12.989Z,28.51
2023-05-09T05:20:13.069Z,30.74
2023-05-09T05:21:13.062Z,29.86
2023-05-09T05:22:13.072Z,30.82
2023-05-09T05:23:13.000Z,29.88
2023-05-09T05:24:13.332Z,28.38
2023-05-09T05:25:13.134Z,28.87
2023-05-09T05:26:12.986Z,30.51
2023-05-09T05:27:12.965Z,29.49
2023-05-09T05:28:13.328Z,29.10
2023-05-09T05:29:13.093Z,28.86
2023-05-09T05:30:13.249Z,28.50
2023-05-09T05:31:12.957Z,28.98
2023-05-09T05:32:13.062Z,30.36
2023-05-09T05:33:12.901Z,30.80
2023-05-09T05:34:12.964Z,29.18
2023-05-09T05:35:13.840Z,28.93
2023-05-09T05:36:12.949Z,27.22
2023-05-09T05:37:13.009Z,28.70
2023-05-09T05:38:12.948Z,29.41
2023-05-09T05:39:13.329Z,26.17
2023-05-09T05:40:13.296Z,26.89
2023-05-09T05:41:12.918Z,28.17
2023-05-09T05:42:13.410Z,26.77
2023-05-09T05:43:13.883Z,26.56
2023-05-09T05:44:12.948Z,28.40
2023-05-09T05:45:13.123Z,26.76
2023-05-09T05:47:40.575Z,28.44
2023-05-09T05:48:32.940Z,25.54
2023-05-09T05:49:32.955Z,25.19
2023-05-09T05:50:32.923Z,24.17
2023-05-09T05:51:32.882Z,25.74
2023-05-09T05:52:32.899Z,26.57
2023-05-09T05:53:32.987Z,26.52
2023-05-09T05:54:32.979Z,25.87
2023-05-09T05:55:33.054Z,25.41
2023-05-09T05:56:33.014Z,24.25
2023-05-09T05:57:32.993Z,27.25
2023-05-09T05:58:33.032Z,26.76
2023-05-09T05:59:33.039Z,25.28
2023-05-09T06:00:33.029Z,24.47
2023-05-09T06:01:33.029Z,24.59
2023-05-09T06:02:33.224Z,24.45
2023-05-09T06:03:33.190Z,24.48
2023-05-09T06:04:33.986Z,23.73
2023-05-09T06:05:33.297Z,23.66
2023-05-09T06:06:33.299Z,22.27
2023-05-09T06:07:33.543Z,26.40
2023-05-09T06:08:33.343Z,26.28
2023-05-09T06:09:33.416Z,26.33
2023-05-09T06:10:33.457Z,27.06
2023-05-09T06:11:33.501Z,26.20
2023-05-09T06:12:33.545Z,26.67
2023-05-09T06:13:33.536Z,26.50
2023-05-09T06:14:33.606Z,27.07
2023-05-09T06:15:33.621Z,27.01
2023-05-09T06:16:33.667Z,26.26
2023-05-09T06:17:33.767Z,26.51
2023-05-09T06:18:33.749Z,28.23
2023-05-09T06:19:33.824Z,26.22
2023-05-09T06:20:33.868Z,26.35
2023-05-09T06:21:33.868Z,26.65
2023-05-09T06:22:33.860Z,25.80
2023-05-09T06:23:33.859Z,26.54
2023-05-09T06:24:36.277Z,26.54
2023-05-09T06:25:33.888Z,26.96
2023-05-09T06:26:33.889Z,26.28
2023-05-09T06:27:34.027Z,25.74
2023-05-09T06:28:33.859Z,24.99
2023-05-09T06:29:33.846Z,24.37
2023-05-09T06:30:33.837Z,25.17
2023-05-09T06:31:34.001Z,24.74
2023-05-09T06:32:33.913Z,23.59
2023-05-09T06:33:33.822Z,24.37
2023-05-09T06:34:33.802Z,24.59
2023-05-09T06:35:33.776Z,24.59
2023-05-09T06:36:33.796Z,24.07
2023-05-09T06:37:34.112Z,23.41
2023-05-09T06:38:33.997Z,24.59
2023-05-09T06:39:33.860Z,23.96
2023-05-09T06:40:33.835Z,22.65
2023-05-09T06:41:33.719Z,23.44
2023-05-09T06:42:34.029Z,23.87
2023-05-09T06:43:33.872Z,22.87
2023-05-09T06:44:33.729Z,23.89
2023-05-09T06:45:33.788Z,24.23
2023-05-09T06:46:33.846Z,23.45
2023-05-09T06:47:34.031Z,22.85
2023-05-09T06:48:33.737Z,23.77
2023-05-09T06:49:33.725Z,24.16
2023-05-09T06:50:33.667Z,24.82
2023-05-09T06:51:33.730Z,22.91
2023-05-09T06:52:33.754Z,23.03
2023-05-09T06:53:34.083Z,23.75
2023-05-09T06:54:33.720Z,23.26
2023-05-09T06:55:33.677Z,21.94
2023-05-09T06:56:33.729Z,22.58
2023-05-09T06:57:33.645Z,22.12
2023-05-09T06:58:34.056Z,21.06
2023-05-09T06:59:33.695Z,22.22
2023-05-09T07:00:33.704Z,22.51
2023-05-09T07:01:33.716Z,23.80
2023-05-09T07:02:33.676Z,22.27
2023-05-09T07:03:33.717Z,23.78
2023-05-09T07:04:33.653Z,23.13
2023-05-09T07:05:33.712Z,25.72
2023-05-09T07:06:33.626Z,24.15
2023-05-09T07:07:33.639Z,24.17
2023-05-09T07:08:34.731Z,23.24
2023-05-09T07:09:33.656Z,23.24
2023-05-09T07:10:33.612Z,23.32
2023-05-09T07:11:33.626Z,23.50
2023-05-09T07:12:33.592Z,23.00
2023-05-09T07:13:34.120Z,23.60
2023-05-09T07:14:33.556Z,22.10
2023-05-09T07:15:41.508Z,21.69
2023-05-09T07:16:37.249Z,21.78
2023-05-09T07:17:33.655Z,22.41
2023-05-09T07:18:34.049Z,22.44
2023-05-09T07:19:33.631Z,22.53
2023-05-09T07:20:33.538Z,23.22
2023-05-09T07:21:33.484Z,21.47
2023-05-09T07:22:35.539Z,21.30
2023-05-09T07:23:33.756Z,20.81
2023-05-09T07:24:33.656Z,21.37
2023-05-09T07:25:33.558Z,21.64
2023-05-09T07:26:33.485Z,20.54
2023-05-09T07:27:33.495Z,21.77
2023-05-09T07:28:34.095Z,22.20
2023-05-09T07:29:33.490Z,22.92
2023-05-09T07:30:33.486Z,21.38
2023-05-09T07:31:35.993Z,18.97
2023-05-09T07:32:33.500Z,20.59
2023-05-09T07:33:33.549Z,21.85
2023-05-09T07:34:33.578Z,20.78
2023-05-09T07:35:33.380Z,20.66
2023-05-09T07:36:35.509Z,20.17
2023-05-09T07:37:33.456Z,21.06
2023-05-09T07:38:33.558Z,19.70
2023-05-09T07:39:33.450Z,20.88
2023-05-09T07:40:33.365Z,20.40
2023-05-09T07:41:33.445Z,21.42
2023-05-09T07:42:33.383Z,20.64
2023-05-09T07:43:33.682Z,22.08
2023-05-09T07:44:33.369Z,21.01
2023-05-09T07:45:33.432Z,21.14
2023-05-09T07:46:33.350Z,20.66
2023-05-09T07:47:33.395Z,19.95
2023-05-09T07:48:33.616Z,21.26
2023-05-09T07:49:33.406Z,20.30
2023-05-09T07:50:33.346Z,21.38
2023-05-09T07:51:33.314Z,20.86
2023-05-09T07:52:33.355Z,21.67
2023-05-09T07:53:33.437Z,18.81
2023-05-09T07:54:33.530Z,19.86
2023-05-09T07:55:33.523Z,18.85
2023-05-09T07:56:33.564Z,18.87
2023-05-09T07:57:33.631Z,19.67
2023-05-09T07:58:33.670Z,20.03
2023-05-09T07:59:33.696Z,20.98
2023-05-09T08:00:33.764Z,20.59
2023-05-09T08:01:33.761Z,20.14
2023-05-09T08:02:33.901Z,20.29
2023-05-09T08:03:33.993Z,20.36
2023-05-09T08:04:33.940Z,19.13
2023-05-09T08:05:33.849Z,20.37
2023-05-09T08:06:33.866Z,20.14
2023-05-09T08:07:33.841Z,19.06
2023-05-09T08:08:33.883Z,17.84
2023-05-09T08:09:34.079Z,20.20
2023-05-09T08:10:33.875Z,19.23
2023-05-09T08:11:33.907Z,19.42
2023-05-09T08:12:33.902Z,21.11
2023-05-09T08:13:34.627Z,20.47
2023-05-09T08:14:34.088Z,20.87
2023-05-09T08:15:34.046Z,20.83
2023-05-09T08:16:34.095Z,20.12
2023-05-09T08:17:33.978Z,22.27
2023-05-09T08:18:34.061Z,21.76
2023-05-09T08:19:34.133Z,20.17
2023-05-09T08:20:34.068Z,19.62
2023-05-09T08:21:34.257Z,19.49
2023-05-09T08:22:34.246Z,21.00
2023-05-09T08:23:34.361Z,20.05
2023-05-09T08:24:34.642Z,20.48
2023-05-09T08:25:34.378Z,19.24
2023-05-09T08:26:34.413Z,19.91
2023-05-09T08:27:34.404Z,18.48
2023-05-09T08:28:34.513Z,18.09
2023-05-09T08:29:34.525Z,17.07
2023-05-09T08:30:34.513Z,18.46
2023-05-09T08:31:34.648Z,17.88
2023-05-09T08:32:34.769Z,16.49
2023-05-09T08:33:34.756Z,17.79
2023-05-09T08:34:35.584Z,17.49
2023-05-09T08:35:35.607Z,16.66
2023-05-09T08:36:34.792Z,14.89
2023-05-09T08:37:34.803Z,16.29
2023-05-09T08:38:34.887Z,18.96
2023-05-09T08:39:35.099Z,14.64
2023-05-09T08:40:34.891Z,13.01
2023-05-09T08:41:35.004Z,12.73
2023-05-09T08:42:35.066Z,14.57
2023-05-09T08:43:35.104Z,14.83
2023-05-09T08:44:35.647Z,13.98
2023-05-09T08:45:35.252Z,14.72
2023-05-09T08:46:35.287Z,15.41
2023-05-09T08:47:35.398Z,15.39
2023-05-09T08:48:36.051Z,15.09
2023-05-09T08:49:35.685Z,14.99
2023-05-09T08:50:35.678Z,13.82
2023-05-09T08:51:35.585Z,14.57
2023-05-09T08:52:35.555Z,15.63
2023-05-09T08:53:35.622Z,12.38
2023-05-09T08:54:36.107Z,15.16
2023-05-09T08:55:35.714Z,14.29
2023-05-09T08:56:35.747Z,15.07
2023-05-09T08:57:35.847Z,13.90
2023-05-09T08:58:35.847Z,14.08
2023-05-09T08:59:35.879Z,14.38
2023-05-09T09:00:35.865Z,15.00
2023-05-09T09:01:36.045Z,13.59
2023-05-09T09:02:35.911Z,13.94
2023-05-09T09:03:35.970Z,13.90
2023-05-09T09:04:36.134Z,13.85
2023-05-09T09:06:36.105Z,13.72
2023-05-09T09:07:36.100Z,14.36
2023-05-09T09:08:36.091Z,12.45
2023-05-09T09:09:36.158Z,12.77
2023-05-09T09:10:36.266Z,11.15
2023-05-09T09:11:36.060Z,10.19
2023-05-09T09:12:36.035Z,9.92
2023-05-09T09:13:36.201Z,9.44
2023-05-09T09:14:36.152Z,10.08
2023-05-09T09:15:36.496Z,9.85
2023-05-09T09:16:36.072Z,10.03
2023-05-09T09:17:36.125Z,9.03
2023-05-09T09:18:36.059Z,9.36
2023-05-09T09:19:36.106Z,9.98
2023-05-09T09:20:35.986Z,9.82
2023-05-09T09:21:36.119Z,9.29
2023-05-09T09:22:36.017Z,8.09
2023-05-09T09:23:36.032Z,8.48
2023-05-09T09:24:36.036Z,8.65
2023-05-09T09:25:36.035Z,9.04
2023-05-09T09:26:35.993Z,9.26
2023-05-09T09:27:35.949Z,8.71
2023-05-09T09:28:35.958Z,8.59
2023-05-09T09:29:35.947Z,8.49
2023-05-09T09:30:36.152Z,8.36
2023-05-09T09:31:35.936Z,8.00
2023-05-09T09:32:35.995Z,7.32
2023-05-09T09:33:35.994Z,7.90
2023-05-09T09:34:35.888Z,7.75
2023-05-09T09:35:35.922Z,7.46
2023-05-09T09:36:35.902Z,7.20
2023-05-09T09:37:35.950Z,5.56
2023-05-09T09:38:35.924Z,6.64
2023-05-09T09:39:35.915Z,6.47
2023-05-09T09:40:36.073Z,6.18
2023-05-09T09:41:35.943Z,6.45
2023-05-09T09:42:36.056Z,6.32
2023-05-09T09:43:36.176Z,6.64
2023-05-09T09:44:36.108Z,6.93
2023-05-09T09:45:36.718Z,6.62
2023-05-09T09:46:36.397Z,6.19
2023-05-09T09:47:36.259Z,7.09
2023-05-09T09:48:36.216Z,6.38
2023-05-09T09:49:36.318Z,6.71
2023-05-09T09:50:37.127Z,6.50
2023-05-09T09:51:36.327Z,6.37
2023-05-09T09:52:36.339Z,6.66
2023-05-09T09:53:36.342Z,6.42
2023-05-09T09:54:36.461Z,7.58
2023-05-09T09:55:36.526Z,7.21
2023-05-09T09:56:36.471Z,7.11
2023-05-09T09:57:36.484Z,6.90
2023-05-09T09:58:36.477Z,7.12
2023-05-09T09:59:36.569Z,7.22
2023-05-09T10:00:36.583Z,6.85
2023-05-09T10:01:36.699Z,6.37
2023-05-09T10:02:36.715Z,7.11
2023-05-09T10:03:36.753Z,6.68
2023-05-09T10:04:36.842Z,6.03
2023-05-09T10:05:36.805Z,6.75
2023-05-09T10:06:36.716Z,5.80
2023-05-09T10:07:36.760Z,6.07
2023-05-09T10:08:36.848Z,6.05
2023-05-09T10:09:36.856Z,5.92
2023-05-09T10:10:36.961Z,5.42
2023-05-09T10:11:36.950Z,5.88
2023-05-09T10:12:36.899Z,6.14
2023-05-09T10:13:36.984Z,6.59
2023-05-09T10:14:38.008Z,5.51
2023-05-09T10:15:49.291Z,6.33
2023-05-09T10:16:43.928Z,6.09
2023-05-09T10:17:38.123Z,4.78
2023-05-09T10:18:37.211Z,4.57
2023-05-09T10:19:36.937Z,4.83
2023-05-09T10:20:37.942Z,4.44
2023-05-09T10:21:38.027Z,4.83
2023-05-09T10:22:36.934Z,4.72
2023-05-09T10:23:36.947Z,4.30
2023-05-09T10:24:36.971Z,5.57
2023-05-09T10:25:37.091Z,4.74
2023-05-09T10:26:36.884Z,4.72
2023-05-09T10:27:36.871Z,4.29
2023-05-09T10:28:36.979Z,3.90
2023-05-09T10:29:36.930Z,3.73
2023-05-09T10:30:36.998Z,4.20
2023-05-09T10:31:37.059Z,4.30
2023-05-09T10:32:37.041Z,4.40
2023-05-09T10:33:37.099Z,3.86
2023-05-09T10:34:37.094Z,4.04
2023-05-09T10:35:37.712Z,3.30
2023-05-09T10:36:37.252Z,3.42
2023-05-09T10:37:38.185Z,3.86
2023-05-09T10:38:38.170Z,3.68
2023-05-09T10:39:37.264Z,4.03
2023-05-09T10:40:37.687Z,3.92
2023-05-09T10:41:37.290Z,4.33
2023-05-09T10:42:37.404Z,4.34
2023-05-09T10:43:37.388Z,3.79
2023-05-09T10:44:37.436Z,3.88
2023-05-09T10:45:37.450Z,5.58
2023-05-09T10:46:37.588Z,3.24
2023-05-09T10:47:37.689Z,3.48
2023-05-09T10:48:37.621Z,3.43
2023-05-09T10:49:37.756Z,3.30
2023-05-09T10:50:37.781Z,3.95
2023-05-09T10:51:37.765Z,3.74
2023-05-09T10:52:37.800Z,3.87
2023-05-09T10:53:37.897Z,3.90
2023-05-09T10:54:37.891Z,3.56
2023-05-09T10:55:37.971Z,3.19
2023-05-09T10:56:37.876Z,3.90
2023-05-09T10:57:37.891Z,3.36
2023-05-09T10:58:37.910Z,3.49
2023-05-09T10:59:38.007Z,3.50
2023-05-09T11:00:38.030Z,3.80
2023-05-09T11:01:38.073Z,3.71
2023-05-09T11:02:38.052Z,3.64
2023-05-09T11:03:38.084Z,4.13
2023-05-09T11:04:38.050Z,3.55
2023-05-09T11:05:38.159Z,3.72
2023-05-09T11:06:38.624Z,3.48
2023-05-09T11:07:38.162Z,3.15
2023-05-09T11:08:38.090Z,3.28
2023-05-09T11:09:38.441Z,3.20
2023-05-09T11:10:38.197Z,3.32
2023-05-09T11:11:38.689Z,2.63
2023-05-09T11:12:38.206Z,3.00
2023-05-09T11:13:38.316Z,2.48
2023-05-09T11:14:38.352Z,2.82
2023-05-09T11:15:38.268Z,2.57
2023-05-09T11:16:38.711Z,2.17
2023-05-09T11:17:38.523Z,2.15
2023-05-09T11:18:38.624Z,2.94
2023-05-09T11:19:38.583Z,2.33
2023-05-09T11:20:38.573Z,2.26
2023-05-09T11:21:38.606Z,1.75
2023-05-09T11:22:39.210Z,2.00
2023-05-09T11:23:38.580Z,1.55
2023-05-09T11:24:38.714Z,1.57
2023-05-09T11:25:39.239Z,1.75
2023-05-09T11:26:40.157Z,2.06
2023-05-09T11:27:38.811Z,1.19
2023-05-09T11:28:38.961Z,1.73
2023-05-09T11:29:38.936Z,1.30
2023-05-09T11:30:38.965Z,1.68
2023-05-09T11:31:39.193Z,2.01
2023-05-09T11:32:39.126Z,2.42
2023-05-09T11:33:39.191Z,1.63
2023-05-09T11:34:39.189Z,1.55
2023-05-09T11:35:39.645Z,1.71
2023-05-09T11:36:39.286Z,1.43
2023-05-09T11:37:39.334Z,1.06
2023-05-09T11:38:39.248Z,1.55
2023-05-09T11:39:39.333Z,1.73
2023-05-09T11:40:39.420Z,1.79
2023-05-09T11:41:39.561Z,1.49
2023-05-09T11:42:39.479Z,1.68
2023-05-09T11:43:39.528Z,1.53
2023-05-09T11:44:39.559Z,1.40
2023-05-09T11:45:39.689Z,1.97
2023-05-09T11:46:40.125Z,1.36
2023-05-09T11:47:39.728Z,1.32
2023-05-09T11:48:39.712Z,1.45
2023-05-09T11:49:39.782Z,1.62
2023-05-09T11:50:39.720Z,0.97
2023-05-09T11:51:39.749Z,1.57
2023-05-09T11:52:39.731Z,1.68
2023-05-09T11:53:39.747Z,1.28
2023-05-09T11:54:39.847Z,1.58
2023-05-09T11:55:39.878Z,1.65
2023-05-09T11:56:39.880Z,1.29
2023-05-09T11:57:39.868Z,1.98
2023-05-09T11:58:39.871Z,1.35
2023-05-09T11:59:39.862Z,1.61
2023-05-09T12:00:39.797Z,0.98
2023-05-09T12:01:39.813Z,1.05
2023-05-09T12:02:39.941Z,0.80
2023-05-09T12:03:39.915Z,1.15
2023-05-09T12:04:39.950Z,1.11
2023-05-09T12:05:39.811Z,0.96
2023-05-09T12:06:39.807Z,1.08
2023-05-09T12:07:39.826Z,0.97
2023-05-09T12:08:39.794Z,1.10
2023-05-09T12:09:39.826Z,0.74
2023-05-09T12:10:39.844Z,1.22
2023-05-09T12:11:39.932Z,0.89
2023-05-09T12:12:39.958Z,0.95
2023-05-09T12:13:40.071Z,0.98
2023-05-09T12:14:40.063Z,0.93
2023-05-09T12:15:40.241Z,1.03
2023-05-09T12:16:40.303Z,1.05
2023-05-09T12:17:40.262Z,1.47
2023-05-09T12:18:40.232Z,1.48
2023-05-09T12:19:40.310Z,3.01
2023-05-09T12:20:40.375Z,1.05
2023-05-09T12:21:41.153Z,1.18
2023-05-09T12:22:40.432Z,0.99
2023-05-09T12:23:40.436Z,1.29
2023-05-09T12:24:40.472Z,0.94
2023-05-09T12:25:40.488Z,1.97
2023-05-09T12:26:40.551Z,0.78
2023-05-09T12:27:40.605Z,0.98
2023-05-09T12:28:40.571Z,1.17
2023-05-09T12:29:40.639Z,5.18
2023-05-09T12:30:40.618Z,2.02
2023-05-09T12:31:40.742Z,1.21
2023-05-09T12:32:40.745Z,1.77
2023-05-09T12:33:40.625Z,1.11
2023-05-09T12:34:40.732Z,1.27
2023-05-09T12:35:40.870Z,2.79
2023-05-09T12:36:40.830Z,2.60
2023-05-09T12:37:40.829Z,2.59
2023-05-09T12:38:40.882Z,2.49
2023-05-09T12:39:40.827Z,2.24
2023-05-09T12:40:41.151Z,2.45
2023-05-09T12:41:49.858Z,2.46
2023-05-09T12:42:41.830Z,2.99
2023-05-09T12:43:40.819Z,2.64
2023-05-09T12:44:40.812Z,2.42
2023-05-09T12:45:40.914Z,1.84
2023-05-09T12:46:40.854Z,1.71
2023-05-09T12:47:40.815Z,1.61
2023-05-09T12:48:40.810Z,1.51
2023-05-09T12:49:40.803Z,1.93
2023-05-09T12:50:40.837Z,1.40
2023-05-09T12:51:40.864Z,1.58
2023-05-09T12:52:50.654Z,1.63
2023-05-09T12:53:41.782Z,1.18
2023-05-09T12:54:40.753Z,1.76
2023-05-09T12:55:40.769Z,1.40
2023-05-09T12:56:40.742Z,1.25
2023-05-09T12:57:40.754Z,1.22
2023-05-09T12:58:40.778Z,0.95
2023-05-09T12:59:40.757Z,1.23
2023-05-09T13:00:40.732Z,1.23
2023-05-09T13:01:40.813Z,1.31
2023-05-09T13:02:40.790Z,2.27
2023-05-09T13:03:40.725Z,0.89
2023-05-09T13:04:40.708Z,0.96